Time;durP1;ratioP1;P1;durP2;ratioP2;P2;SDS_P1;SDS_P2;PMS_P1;PMS_P2;Temp;Humidity;BMP_temperature;BMP_pressure;BME280_temperature;BME280_humidity;BME280_pressure;Samples;Min_cycle;Max_cycle;Signal;HPM_P1;HPM_P2
2023/10/13 00:01:58;;;;;;;9.77;5.60;;;;;;;;;;4404634;32;317073;-87
2023/10/13 00:04:26;;;;;;;7.80;5.50;;;;;;;;;;4421409;32;316447;-83
2023/10/13 00:06:52;;;;;;;11.27;5.32;;;;;;;;;;4413128;32;316702;-85
2023/10/13 00:09:25;;;;;;;6.65;5.55;;;;;;;;;;4428648;32;318628;-85
2023/10/13 00:11:56;;;;;;;13.25;6.00;;;;;;;;;;4427903;32;315454;-82
2023/10/13 00:14:32;;;;;;;8.38;6.30;;;;;;;;;;4411525;32;415463;-83
2023/10/13 00:17:04;;;;;;;6.37;5.55;;;;;;;;;;4403253;32;316957;-84
2023/10/13 00:19:38;;;;;;;12.23;7.37;;;;;;;;;;4397137;32;317298;-84
2023/10/13 00:22:10;;;;;;;11.38;7.85;;;;;;;;;;4400477;32;318036;-84
2023/10/13 00:24:42;;;;;;;12.68;7.32;;;;;;;;;;4413246;32;317841;-83
2023/10/13 00:27:27;;;;;;;9.47;5.83;;;;;;;;;;4399496;32;317885;-84
2023/10/13 00:30:15;;;;;;;10.07;6.03;;;;;;;;;;4402864;32;316921;-84
2023/10/13 00:32:47;;;;;;;9.52;5.53;;;;;;;;;;4414218;32;317921;-84
2023/10/13 00:35:24;;;;;;;6.50;5.22;;;;;;;;;;4400381;32;316793;-81
2023/10/13 00:37:53;;;;;;;8.52;6.40;;;;;;;;;;4413360;32;316693;-81
2023/10/13 00:40:41;;;;;;;11.00;6.30;;;;;;;;;;4401958;32;415224;-83
2023/10/13 00:46:07;;;;;;;12.13;6.15;;;;;;;;;;4403597;32;317860;-84
2023/10/13 00:48:42;;;;;;;8.63;5.82;;;;;;;;;;4414208;32;317664;-84
2023/10/13 00:51:18;;;;;;;7.20;5.78;;;;;;;;;;4400880;32;316632;-82
2023/10/13 00:53:47;;;;;;;11.48;5.60;;;;;;;;;;4414437;32;316813;-85
2023/10/13 00:56:23;;;;;;;8.85;6.20;;;;;;;;;;4402889;32;317939;-82
2023/10/13 00:58:52;;;;;;;9.52;5.85;;;;;;;;;;4412584;32;316815;-85
2023/10/13 01:01:21;;;;;;;11.70;6.12;;;;;;;;;;4394896;32;415987;-82
2023/10/13 01:03:49;;;;;;;11.93;6.20;;;;;;;;;;4413866;32;317576;-84
2023/10/13 01:06:20;;;;;;;9.90;6.20;;;;;;;;;;4401053;32;317561;-82
2023/10/13 01:08:50;;;;;;;9.25;5.93;;;;;;;;;;4412785;32;348645;-83
2023/10/13 01:11:19;;;;;;;7.37;5.68;;;;;;;;;;4394828;32;417810;-83
2023/10/13 01:13:53;;;;;;;10.23;5.00;;;;;;;;;;4413918;32;316713;-83
2023/10/13 01:16:23;;;;;;;7.28;5.40;;;;;;;;;;4400129;32;416304;-82
2023/10/13 01:18:50;;;;;;;7.32;4.62;;;;;;;;;;4413482;32;316765;-83
2023/10/13 01:21:20;;;;;;;4.87;4.30;;;;;;;;;;4400208;32;316958;-84
2023/10/13 01:23:50;;;;;;;9.10;5.18;;;;;;;;;;4412863;32;316973;-81
2023/10/13 01:26:24;;;;;;;10.18;5.43;;;;;;;;;;4401210;32;326845;-81
2023/10/13 01:28:54;;;;;;;6.32;5.28;;;;;;;;;;4412397;32;318060;-83
2023/10/13 01:31:28;;;;;;;7.12;5.03;;;;;;;;;;4396432;32;415834;-82
2023/10/13 01:33:58;;;;;;;8.45;5.95;;;;;;;;;;4399760;32;316907;-83
2023/10/13 01:36:28;;;;;;;6.95;4.68;;;;;;;;;;4412589;32;316968;-83
2023/10/13 01:38:55;;;;;;;7.97;5.12;;;;;;;;;;4402487;32;316655;-85
2023/10/13 01:41:23;;;;;;;7.72;5.40;;;;;;;;;;4410385;32;316522;-84
2023/10/13 01:43:51;;;;;;;12.10;6.03;;;;;;;;;;4412179;32;316594;-82
2023/10/13 01:46:21;;;;;;;18.60;12.73;;;;;;;;;;4399774;32;416630;-84
2023/10/13 01:48:49;;;;;;;10.80;8.70;;;;;;;;;;4413545;32;318632;-85
2023/10/13 01:51:15;;;;;;;9.45;7.07;;;;;;;;;;4397660;32;318064;-84
2023/10/13 01:53:43;;;;;;;6.50;5.57;;;;;;;;;;4413043;32;316728;-82
2023/10/13 01:56:11;;;;;;;8.02;6.00;;;;;;;;;;4403285;32;316817;-82
2023/10/13 01:58:42;;;;;;;8.98;5.78;;;;;;;;;;4415151;32;316754;-84
2023/10/13 02:01:09;;;;;;;7.72;5.45;;;;;;;;;;4407829;32;316828;-81
2023/10/13 02:03:49;;;;;;;5.53;4.93;;;;;;;;;;4415791;32;316374;-83
2023/10/13 02:06:17;;;;;;;6.60;4.95;;;;;;;;;;4404414;32;316639;-83
2023/10/13 02:08:51;;;;;;;7.22;5.18;;;;;;;;;;4413576;32;316680;-82
2023/10/13 02:11:20;;;;;;;9.38;5.80;;;;;;;;;;4395465;32;418862;-82
2023/10/13 02:13:51;;;;;;;5.50;4.90;;;;;;;;;;4415412;32;316701;-81
2023/10/13 02:16:18;;;;;;;5.53;4.40;;;;;;;;;;4403769;32;316673;-82
2023/10/13 02:18:51;;;;;;;10.35;5.18;;;;;;;;;;4413313;32;316926;-82
2023/10/13 02:21:17;;;;;;;12.02;6.05;;;;;;;;;;4399437;32;417317;-85
2023/10/13 02:23:45;;;;;;;5.45;4.32;;;;;;;;;;4416556;32;317890;-85
2023/10/13 02:26:15;;;;;;;7.70;5.28;;;;;;;;;;4405503;32;316538;-84
2023/10/13 02:28:50;;;;;;;7.62;4.95;;;;;;;;;;4413970;32;316656;-84
2023/10/13 02:31:19;;;;;;;7.57;5.05;;;;;;;;;;4397827;32;387842;-85
2023/10/13 02:33:46;;;;;;;8.85;6.62;;;;;;;;;;4415086;32;316713;-85
2023/10/13 02:36:12;;;;;;;12.52;6.18;;;;;;;;;;4404366;32;316960;-84
2023/10/13 02:38:46;;;;;;;11.43;7.87;;;;;;;;;;4414488;32;317613;-87
2023/10/13 02:41:20;;;;;;;12.60;7.93;;;;;;;;;;4403838;32;317900;-85
2023/10/13 02:43:49;;;;;;;12.75;8.70;;;;;;;;;;4416350;32;316658;-84
2023/10/13 02:46:16;;;;;;;21.87;8.30;;;;;;;;;;4403207;32;353926;-86
2023/10/13 02:48:45;;;;;;;13.25;7.68;;;;;;;;;;4400931;32;317582;-86
2023/10/13 02:51:16;;;;;;;9.63;7.80;;;;;;;;;;4399866;32;317779;-86
2023/10/13 02:53:47;;;;;;;17.00;9.63;;;;;;;;;;4414907;32;316654;-84
2023/10/13 02:56:13;;;;;;;13.10;7.75;;;;;;;;;;4403092;32;317770;-87
2023/10/13 02:58:45;;;;;;;14.05;8.00;;;;;;;;;;4414571;32;318014;-85
2023/10/13 03:01:18;;;;;;;11.40;8.52;;;;;;;;;;4405170;32;317801;-83
2023/10/13 03:03:51;;;;;;;13.93;7.95;;;;;;;;;;4413374;32;317473;-84
2023/10/13 03:06:21;;;;;;;14.02;8.25;;;;;;;;;;4401996;32;417231;-82
2023/10/13 03:08:49;;;;;;;12.40;7.60;;;;;;;;;;4415654;32;317458;-87
2023/10/13 03:11:21;;;;;;;13.32;8.63;;;;;;;;;;4401315;32;317724;-86
2023/10/13 03:13:52;;;;;;;14.13;8.82;;;;;;;;;;4414323;32;317511;-84
2023/10/13 03:16:21;;;;;;;14.03;9.00;;;;;;;;;;4401630;32;417294;-84
2023/10/13 03:18:55;;;;;;;12.83;9.13;;;;;;;;;;4415450;32;317840;-83
2023/10/13 03:21:31;;;;;;;18.73;10.77;;;;;;;;;;4398057;32;419308;-82
2023/10/13 03:24:05;;;;;;;18.17;9.55;;;;;;;;;;4401204;32;318758;-84
2023/10/13 03:26:36;;;;;;;17.10;8.52;;;;;;;;;;4415156;32;317681;-85
2023/10/13 03:29:07;;;;;;;9.83;6.73;;;;;;;;;;4402035;32;333453;-87
2023/10/13 03:31:39;;;;;;;17.40;9.93;;;;;;;;;;4413368;32;316668;-85
2023/10/13 03:34:11;;;;;;;65.00;34.55;;;;;;;;;;4400173;32;318190;-84
2023/10/13 03:36:57;;;;;;;42.97;24.03;;;;;;;;;;4415073;32;319206;-85
2023/10/13 03:39:29;;;;;;;12.97;8.17;;;;;;;;;;4398819;32;419205;-85
2023/10/13 03:41:59;;;;;;;9.33;5.67;;;;;;;;;;4403515;32;318202;-85
2023/10/13 03:44:31;;;;;;;8.03;6.10;;;;;;;;;;4414904;32;316667;-84
2023/10/13 03:47:17;;;;;;;8.27;6.20;;;;;;;;;;4400840;32;320464;-83
2023/10/13 03:49:47;;;;;;;11.73;6.40;;;;;;;;;;4414023;32;316882;-84
2023/10/13 03:52:18;;;;;;;16.27;7.30;;;;;;;;;;4404043;32;317817;-84
2023/10/13 03:54:47;;;;;;;8.90;6.17;;;;;;;;;;4399255;32;317908;-86
2023/10/13 03:57:16;;;;;;;9.90;6.57;;;;;;;;;;4399098;32;316828;-86
2023/10/13 03:59:48;;;;;;;8.67;6.33;;;;;;;;;;4414951;32;316636;-85
2023/10/13 04:02:21;;;;;;;11.93;6.07;;;;;;;;;;4401647;32;317089;-85
2023/10/13 04:04:53;;;;;;;14.43;7.00;;;;;;;;;;4414328;32;317854;-84
2023/10/13 04:15:43;;;;;;;13.20;7.75;;;;;;;;;;4399467;32;387820;-84
2023/10/13 04:18:33;;;;;;;11.20;6.97;;;;;;;;;;4401453;32;317581;-87
2023/10/13 04:21:18;;;;;;;10.10;7.73;;;;;;;;;;4404153;32;317802;-83
2023/10/13 04:26:36;;;;;;;9.13;6.43;;;;;;;;;;4401189;32;389573;-85
2023/10/13 04:29:27;;;;;;;17.03;9.43;;;;;;;;;;4401981;32;353159;-87
2023/10/13 04:32:00;;;;;;;16.33;11.37;;;;;;;;;;4428569;32;316454;-83
2023/10/13 04:34:30;;;;;;;25.40;13.47;;;;;;;;;;4383570;26;417743;-95
2023/10/13 04:39:56;;;;;;;27.07;12.53;;;;;;;;;;4377563;32;318498;-93
2023/10/13 04:42:39;;;;;;;28.00;12.33;;;;;;;;;;4343576;32;421458;-93
2023/10/13 04:45:38;;;;;;;20.17;12.47;;;;;;;;;;4361023;32;318860;-94
2023/10/13 04:48:27;;;;;;;24.47;12.77;;;;;;;;;;4356553;32;318577;-94
2023/10/13 04:54:11;;;;;;;18.47;13.67;;;;;;;;;;4367355;32;334603;-93
2023/10/13 04:57:23;;;;;;;27.40;13.23;;;;;;;;;;4344630;32;418626;-92
2023/10/13 05:02:55;;;;;;;18.30;12.10;;;;;;;;;;4368147;32;389992;-94
2023/10/13 05:48:24;;;;;;;27.97;12.23;;;;;;;;;;4290574;32;318526;-93
2023/10/13 05:51:32;;;;;;;17.90;11.27;;;;;;;;;;4385880;32;318342;-93
2023/10/13 06:31:21;;;;;;;19.60;10.73;;;;;;;;;;4368279;32;318419;-92
2023/10/13 06:34:21;;;;;;;23.83;11.83;;;;;;;;;;4381761;32;318690;-95
2023/10/13 06:36:59;;;;;;;26.47;11.20;;;;;;;;;;4381590;32;354779;-94
2023/10/13 06:45:28;;;;;;;21.47;12.57;;;;;;;;;;4418895;32;317423;-94
2023/10/13 06:48:04;;;;;;;22.92;12.60;;;;;;;;;;4358623;32;417559;-94
2023/10/13 06:51:17;;;;;;;22.63;13.10;;;;;;;;;;4329524;32;318467;-96
2023/10/13 06:53:56;;;;;;;20.77;11.63;;;;;;;;;;4284264;32;419317;-94
2023/10/13 06:56:52;;;;;;;23.93;11.60;;;;;;;;;;4315168;32;420847;-93
2023/10/13 06:59:26;;;;;;;22.83;11.50;;;;;;;;;;4282856;33;417756;-95
2023/10/13 07:02:05;;;;;;;25.90;11.13;;;;;;;;;;4308817;33;317269;-94
2023/10/13 07:04:39;;;;;;;31.45;10.90;;;;;;;;;;4296028;33;348547;-95
2023/10/13 07:07:11;;;;;;;18.05;10.30;;;;;;;;;;4297936;33;318551;-95
2023/10/13 07:09:58;;;;;;;18.60;9.50;;;;;;;;;;4291872;33;318631;-95
2023/10/13 07:12:33;;;;;;;17.58;9.23;;;;;;;;;;4295381;32;421245;-92
2023/10/13 07:15:19;;;;;;;11.33;7.67;;;;;;;;;;4238346;33;348962;-94
2023/10/13 07:18:04;;;;;;;12.65;8.32;;;;;;;;;;4239624;32;317491;-95
2023/10/13 07:20:43;;;;;;;12.65;9.10;;;;;;;;;;4300958;32;418997;-94
2023/10/13 07:23:19;;;;;;;11.83;7.97;;;;;;;;;;4289510;33;317835;-95
2023/10/13 07:25:55;;;;;;;15.70;7.87;;;;;;;;;;4328399;32;317518;-93
2023/10/13 07:28:31;;;;;;;10.43;7.22;;;;;;;;;;4329468;32;389818;-93
2023/10/13 07:31:15;;;;;;;13.32;8.55;;;;;;;;;;4353399;32;317374;-94
2023/10/13 07:33:51;;;;;;;11.68;7.90;;;;;;;;;;4358156;32;317232;-93
2023/10/13 07:36:27;;;;;;;16.87;8.80;;;;;;;;;;4379357;32;317547;-94
2023/10/13 07:42:40;;;;;;;19.02;8.30;;;;;;;;;;4357419;32;317492;-93
2023/10/13 07:45:53;;;;;;;17.87;8.90;;;;;;;;;;4304202;32;317490;-93
2023/10/13 07:48:35;;;;;;;13.15;6.85;;;;;;;;;;4245676;33;389734;-93
2023/10/13 07:51:16;;;;;;;14.10;9.70;;;;;;;;;;4301188;32;316614;-95
2023/10/13 07:53:49;;;;;;;11.40;7.55;;;;;;;;;;4270440;33;317752;-94
2023/10/13 07:56:26;;;;;;;14.90;8.38;;;;;;;;;;4278410;32;327419;-93
2023/10/13 07:59:09;;;;;;;14.90;8.25;;;;;;;;;;4265414;33;317439;-93
2023/10/13 08:01:42;;;;;;;13.35;8.80;;;;;;;;;;4293569;32;317352;-91
2023/10/13 08:04:16;;;;;;;18.05;8.68;;;;;;;;;;4333405;32;317550;-92
2023/10/13 08:06:48;;;;;;;15.15;8.85;;;;;;;;;;4360857;32;317586;-92
2023/10/13 08:12:11;;;;;;;20.10;8.32;;;;;;;;;;4379615;32;317532;-94
2023/10/13 08:15:32;;;;;;;13.48;9.68;;;;;;;;;;4375025;32;317526;-94
2023/10/13 08:24:15;;;;;;;13.50;8.90;;;;;;;;;;4345988;32;317408;-94
2023/10/13 08:33:03;;;;;;;11.52;7.47;;;;;;;;;;4369571;32;316296;-93
2023/10/13 08:36:27;;;;;;;18.95;8.38;;;;;;;;;;4364483;32;317508;-94
2023/10/13 08:42:13;;;;;;;12.37;7.73;;;;;;;;;;4349944;32;443765;-94
2023/10/13 08:45:04;;;;;;;18.77;9.30;;;;;;;;;;4369301;32;317207;-94
2023/10/13 08:48:12;;;;;;;13.68;7.68;;;;;;;;;;4347633;32;389011;-93
2023/10/13 08:50:52;;;;;;;15.55;7.50;;;;;;;;;;4327904;32;414599;-93
2023/10/13 08:56:47;;;;;;;15.10;6.53;;;;;;;;;;4338627;32;388109;-93
2023/10/13 08:59:22;;;;;;;11.38;7.10;;;;;;;;;;4291920;32;316413;-94
2023/10/13 09:02:15;;;;;;;10.27;6.80;;;;;;;;;;4345898;32;317373;-93
2023/10/13 09:04:44;;;;;;;8.35;6.47;;;;;;;;;;4317068;32;390129;-93
2023/10/13 09:07:21;;;;;;;10.60;7.30;;;;;;;;;;4301662;32;316470;-94
2023/10/13 09:12:38;;;;;;;11.00;6.78;;;;;;;;;;4299692;32;388887;-94
2023/10/13 09:15:59;;;;;;;11.10;6.62;;;;;;;;;;4342661;32;317506;-91
2023/10/13 09:18:46;;;;;;;13.70;7.97;;;;;;;;;;4330997;32;388337;-94
2023/10/13 09:24:21;;;;;;;9.95;5.90;;;;;;;;;;4301044;32;317727;-92
2023/10/13 09:26:55;;;;;;;8.73;6.45;;;;;;;;;;4356663;32;316591;-92
2023/10/13 09:29:46;;;;;;;24.17;7.00;;;;;;;;;;4298721;32;388406;-93
2023/10/13 09:32:19;;;;;;;17.65;6.70;;;;;;;;;;4253890;32;317514;-93
2023/10/13 09:34:55;;;;;;;10.20;6.47;;;;;;;;;;4313360;32;346745;-94
2023/10/13 09:37:25;;;;;;;14.45;7.32;;;;;;;;;;4268163;32;390277;-94
2023/10/13 09:40:24;;;;;;;10.98;7.10;;;;;;;;;;4315217;32;317480;-92
2023/10/13 09:42:53;;;;;;;12.27;6.12;;;;;;;;;;4297881;32;388833;-91
2023/10/13 09:45:59;;;;;;;9.75;6.62;;;;;;;;;;4311799;32;420091;-92
2023/10/13 09:48:26;;;;;;;11.52;6.75;;;;;;;;;;4351750;32;316111;-94
2023/10/13 09:51:10;;;;;;;16.00;6.15;;;;;;;;;;4352598;32;316435;-94
2023/10/13 09:53:44;;;;;;;9.38;6.53;;;;;;;;;;4342244;32;419850;-93
2023/10/13 09:56:23;;;;;;;9.68;6.72;;;;;;;;;;4360458;32;315326;-93
2023/10/13 09:59:08;;;;;;;10.40;6.55;;;;;;;;;;4366797;32;316508;-93
2023/10/13 10:01:50;;;;;;;12.60;6.95;;;;;;;;;;4315671;32;390340;-93
2023/10/13 10:04:17;;;;;;;11.98;6.78;;;;;;;;;;4363673;32;317342;-91
2023/10/13 10:06:56;;;;;;;9.40;7.05;;;;;;;;;;4349368;32;317567;-91
2023/10/13 10:09:34;;;;;;;15.82;5.93;;;;;;;;;;4312186;32;420379;-90
2023/10/13 10:12:55;;;;;;;10.70;6.63;;;;;;;;;;4341170;32;317501;-91
2023/10/13 10:15:33;;;;;;;16.67;6.93;;;;;;;;;;4326724;32;389066;-92
2023/10/13 10:18:27;;;;;;;13.48;7.12;;;;;;;;;;4328221;32;338933;-91
2023/10/13 10:21:22;;;;;;;12.35;7.18;;;;;;;;;;4326027;32;317631;-92
2023/10/13 10:23:55;;;;;;;10.93;6.15;;;;;;;;;;4324415;32;317549;-92
2023/10/13 10:26:25;;;;;;;12.95;6.47;;;;;;;;;;4320536;32;389524;-93
2023/10/13 10:29:07;;;;;;;15.00;6.80;;;;;;;;;;4345347;32;317907;-92
2023/10/13 10:31:45;;;;;;;11.15;5.97;;;;;;;;;;4340918;32;415708;-91
2023/10/13 10:34:21;;;;;;;8.25;6.05;;;;;;;;;;4332023;32;325170;-90
2023/10/13 10:37:16;;;;;;;11.35;7.40;;;;;;;;;;4332719;32;315206;-91
2023/10/13 10:39:56;;;;;;;15.18;6.03;;;;;;;;;;4336774;32;317498;-91
2023/10/13 10:42:29;;;;;;;9.20;6.18;;;;;;;;;;4343247;32;317704;-91
2023/10/13 10:45:09;;;;;;;10.05;5.57;;;;;;;;;;4308408;32;316607;-90
2023/10/13 10:47:38;;;;;;;11.50;5.53;;;;;;;;;;4373888;32;317547;-91
2023/10/13 10:50:19;;;;;;;10.63;5.62;;;;;;;;;;4351511;32;389944;-94
2023/10/13 10:52:59;;;;;;;9.75;5.80;;;;;;;;;;4368930;32;317862;-91
2023/10/13 10:55:36;;;;;;;14.70;5.50;;;;;;;;;;4352749;32;320416;-90
2023/10/13 10:58:28;;;;;;;8.23;5.20;;;;;;;;;;4370628;32;317873;-91
2023/10/13 11:01:18;;;;;;;9.70;4.87;;;;;;;;;;4370082;32;316406;-91
2023/10/13 11:03:57;;;;;;;12.43;5.07;;;;;;;;;;4359702;32;316471;-92
2023/10/13 11:06:27;;;;;;;7.90;4.07;;;;;;;;;;4352543;32;326029;-91
2023/10/13 11:09:18;;;;;;;9.77;5.07;;;;;;;;;;4343217;32;316134;-90
2023/10/13 11:11:52;;;;;;;9.60;4.37;;;;;;;;;;4362260;32;316583;-90
2023/10/13 11:14:54;;;;;;;6.75;3.87;;;;;;;;;;4351812;32;316394;-91
2023/10/13 11:17:41;;;;;;;7.35;3.28;;;;;;;;;;4362657;32;417188;-90
2023/10/13 11:20:25;;;;;;;6.05;3.22;;;;;;;;;;4360785;32;389036;-91
2023/10/13 11:22:56;;;;;;;7.80;3.10;;;;;;;;;;4368787;32;316425;-91
2023/10/13 11:25:34;;;;;;;8.05;3.67;;;;;;;;;;4380024;32;316273;-92
2023/10/13 11:28:27;;;;;;;9.43;2.58;;;;;;;;;;4363988;32;317131;-90
2023/10/13 11:30:59;;;;;;;5.87;2.22;;;;;;;;;;4368725;32;316507;-91
2023/10/13 11:33:46;;;;;;;9.23;2.72;;;;;;;;;;4394936;32;316834;-91
2023/10/13 11:36:27;;;;;;;9.63;2.53;;;;;;;;;;4353095;32;417172;-91
2023/10/13 11:39:07;;;;;;;10.40;2.25;;;;;;;;;;4340794;32;315447;-91
2023/10/13 11:44:31;;;;;;;7.12;2.37;;;;;;;;;;4349262;32;387857;-90
2023/10/13 11:47:32;;;;;;;6.35;2.30;;;;;;;;;;4379155;32;316461;-90
2023/10/13 11:49:59;;;;;;;17.37;2.90;;;;;;;;;;4352777;32;316819;-90
2023/10/13 11:52:32;;;;;;;6.30;2.53;;;;;;;;;;4384518;32;317315;-91
2023/10/13 11:55:00;;;;;;;6.75;3.12;;;;;;;;;;4337316;32;316429;-90
2023/10/13 11:57:28;;;;;;;7.22;2.17;;;;;;;;;;4382938;32;339527;-91
2023/10/13 12:00:25;;;;;;;11.38;3.28;;;;;;;;;;4353982;32;316470;-91
2023/10/13 12:06:06;;;;;;;12.90;3.03;;;;;;;;;;4389566;32;339600;-88
2023/10/13 12:08:49;;;;;;;11.77;3.00;;;;;;;;;;4367028;32;421588;-90
2023/10/13 12:11:39;;;;;;;6.53;2.10;;;;;;;;;;4334025;32;389132;-89
2023/10/13 12:14:16;;;;;;;8.82;3.10;;;;;;;;;;4379909;32;418666;-91
2023/10/13 12:16:48;;;;;;;4.90;2.95;;;;;;;;;;4339247;32;316186;-90
2023/10/13 12:19:26;;;;;;;11.02;3.97;;;;;;;;;;4367938;32;316573;-90
2023/10/13 12:21:55;;;;;;;10.23;2.90;;;;;;;;;;4371535;32;317130;-91
2023/10/13 12:24:39;;;;;;;6.15;2.78;;;;;;;;;;4401596;32;316237;-90
2023/10/13 12:30:06;;;;;;;13.23;2.97;;;;;;;;;;4361629;32;315177;-91
2023/10/13 12:32:34;;;;;;;5.47;2.83;;;;;;;;;;4388367;32;316072;-90
2023/10/13 12:35:27;;;;;;;10.60;3.30;;;;;;;;;;4347085;32;316170;-91
2023/10/13 12:38:08;;;;;;;8.38;2.37;;;;;;;;;;4368789;32;316375;-91
2023/10/13 12:49:27;;;;;;;9.50;3.33;;;;;;;;;;4352972;32;316412;-90
2023/10/13 12:52:00;;;;;;;7.17;3.10;;;;;;;;;;4377916;32;316635;-92
2023/10/13 12:54:35;;;;;;;16.40;4.10;;;;;;;;;;4367663;32;316368;-91
2023/10/13 12:57:15;;;;;;;8.82;2.47;;;;;;;;;;4367888;32;344978;-91
2023/10/13 12:59:43;;;;;;;5.40;3.17;;;;;;;;;;4368817;32;323550;-92
2023/10/13 13:02:24;;;;;;;6.50;3.28;;;;;;;;;;4374768;32;316494;-91
2023/10/13 13:05:14;;;;;;;8.95;3.10;;;;;;;;;;4358920;32;386676;-92
2023/10/13 13:07:52;;;;;;;12.60;3.20;;;;;;;;;;4367313;32;315075;-90
2023/10/13 13:16:07;;;;;;;7.65;3.20;;;;;;;;;;4369173;32;316020;-90
2023/10/13 13:18:36;;;;;;;10.90;4.12;;;;;;;;;;4393498;32;315050;-91
2023/10/13 13:21:19;;;;;;;7.90;3.42;;;;;;;;;;4353234;32;316368;-91
2023/10/13 13:23:51;;;;;;;8.55;3.28;;;;;;;;;;4365686;32;314939;-89
2023/10/13 13:26:24;;;;;;;11.18;3.47;;;;;;;;;;4401996;32;315134;-90
2023/10/13 13:31:41;;;;;;;12.45;5.45;;;;;;;;;;4376481;32;316059;-90
2023/10/13 13:34:14;;;;;;;9.70;5.20;;;;;;;;;;4344472;32;420739;-92
2023/10/13 13:36:44;;;;;;;13.23;5.70;;;;;;;;;;4361758;32;316518;-91
2023/10/13 13:39:17;;;;;;;18.73;4.80;;;;;;;;;;4387130;32;317369;-90
2023/10/13 13:41:46;;;;;;;10.95;5.00;;;;;;;;;;4350585;32;318405;-91
2023/10/13 13:44:16;;;;;;;20.65;5.00;;;;;;;;;;4383978;32;316532;-90
2023/10/13 13:46:53;;;;;;;10.23;5.18;;;;;;;;;;4355342;32;317594;-90
2023/10/13 13:49:29;;;;;;;8.43;4.30;;;;;;;;;;4360205;32;316285;-90
2023/10/13 13:52:04;;;;;;;7.85;3.70;;;;;;;;;;4377150;32;316505;-90
2023/10/13 13:54:34;;;;;;;10.07;3.75;;;;;;;;;;4385732;32;316337;-90
2023/10/13 13:57:13;;;;;;;11.80;3.92;;;;;;;;;;4310656;32;318115;-90
2023/10/13 13:59:43;;;;;;;16.27;6.97;;;;;;;;;;4350200;32;317313;-91
2023/10/13 14:02:22;;;;;;;10.77;4.78;;;;;;;;;;4381931;32;317534;-90
2023/10/13 14:04:55;;;;;;;16.42;4.22;;;;;;;;;;4378969;32;316408;-89
2023/10/13 14:07:32;;;;;;;10.55;5.40;;;;;;;;;;4384437;32;317535;-90
2023/10/13 14:10:06;;;;;;;13.18;5.47;;;;;;;;;;4357381;32;317393;-90
2023/10/13 14:12:41;;;;;;;14.43;4.70;;;;;;;;;;4395603;32;317407;-91
2023/10/13 14:15:25;;;;;;;11.70;4.65;;;;;;;;;;4374232;32;421564;-89
2023/10/13 14:17:57;;;;;;;15.90;4.82;;;;;;;;;;4379875;32;317578;-89
2023/10/13 14:20:26;;;;;;;16.12;7.00;;;;;;;;;;4363595;32;317362;-90
2023/10/13 14:22:57;;;;;;;11.23;4.50;;;;;;;;;;4368646;32;317487;-90
2023/10/13 14:25:37;;;;;;;8.10;3.85;;;;;;;;;;4368661;32;317403;-90
2023/10/13 14:28:15;;;;;;;10.27;3.67;;;;;;;;;;4375858;32;316562;-89
2023/10/13 14:30:45;;;;;;;14.52;4.22;;;;;;;;;;4375094;32;320211;-89
2023/10/13 14:33:15;;;;;;;10.50;4.47;;;;;;;;;;4362942;32;317379;-90
2023/10/13 14:35:47;;;;;;;12.75;5.60;;;;;;;;;;4341507;32;317533;-90
2023/10/13 14:38:18;;;;;;;8.95;3.80;;;;;;;;;;4387527;32;317562;-91
2023/10/13 14:40:48;;;;;;;17.02;4.97;;;;;;;;;;4361177;32;316311;-90
2023/10/13 14:43:21;;;;;;;7.82;3.50;;;;;;;;;;4387880;32;317371;-90
2023/10/13 14:45:51;;;;;;;11.07;3.28;;;;;;;;;;4368095;32;316641;-90
2023/10/13 14:48:19;;;;;;;15.93;5.60;;;;;;;;;;4360055;32;316435;-90
2023/10/13 14:50:48;;;;;;;6.40;3.45;;;;;;;;;;4363577;32;318549;-91
2023/10/13 14:53:26;;;;;;;9.65;3.00;;;;;;;;;;4358248;32;317117;-89
2023/10/13 14:55:55;;;;;;;21.90;3.50;;;;;;;;;;4377993;32;316381;-89
2023/10/13 14:58:26;;;;;;;11.63;3.47;;;;;;;;;;4396823;32;317467;-89
2023/10/13 15:00:54;;;;;;;9.87;3.33;;;;;;;;;;4364701;32;318628;-89
2023/10/13 15:03:23;;;;;;;11.88;3.62;;;;;;;;;;4384444;32;316504;-89
2023/10/13 15:05:55;;;;;;;9.68;4.28;;;;;;;;;;4360676;32;317429;-90
2023/10/13 15:08:23;;;;;;;15.75;4.12;;;;;;;;;;4383555;32;316254;-91
2023/10/13 15:10:51;;;;;;;18.50;3.05;;;;;;;;;;4362537;32;317675;-90
2023/10/13 15:13:20;;;;;;;8.30;3.55;;;;;;;;;;4368991;32;317354;-90
2023/10/13 15:15:49;;;;;;;12.87;3.50;;;;;;;;;;4367890;32;316451;-91
2023/10/13 15:18:18;;;;;;;8.63;2.78;;;;;;;;;;4387049;32;317597;-91
2023/10/13 15:20:50;;;;;;;8.07;3.80;;;;;;;;;;4374770;32;316325;-91
2023/10/13 15:23:30;;;;;;;12.02;4.53;;;;;;;;;;4364900;32;316639;-91
2023/10/13 15:26:06;;;;;;;18.10;5.50;;;;;;;;;;4374518;32;317386;-91
2023/10/13 15:28:33;;;;;;;12.05;5.22;;;;;;;;;;4372891;32;317723;-91
2023/10/13 15:31:22;;;;;;;17.37;5.28;;;;;;;;;;4371298;32;317835;-90
2023/10/13 15:33:56;;;;;;;15.87;5.73;;;;;;;;;;4359068;32;317543;-90
2023/10/13 15:36:39;;;;;;;11.88;5.15;;;;;;;;;;4385539;32;317634;-91
2023/10/13 15:39:09;;;;;;;12.90;4.95;;;;;;;;;;4371624;32;422386;-91
2023/10/13 15:41:38;;;;;;;14.68;5.60;;;;;;;;;;4387777;32;317543;-90
2023/10/13 15:44:13;;;;;;;15.63;6.22;;;;;;;;;;4359544;32;417347;-90
2023/10/13 15:46:48;;;;;;;15.32;5.57;;;;;;;;;;4372086;32;317777;-91
2023/10/13 15:49:16;;;;;;;16.37;5.95;;;;;;;;;;4388591;32;317683;-90
2023/10/13 15:51:46;;;;;;;9.85;5.57;;;;;;;;;;4359754;32;317633;-90
2023/10/13 15:54:15;;;;;;;9.27;5.10;;;;;;;;;;4381997;32;316962;-91
2023/10/13 15:56:43;;;;;;;15.68;5.65;;;;;;;;;;4381559;32;317079;-91
2023/10/13 15:59:14;;;;;;;11.88;5.45;;;;;;;;;;4367345;32;317544;-91
2023/10/13 16:01:56;;;;;;;9.05;5.75;;;;;;;;;;4355512;32;318425;-89
2023/10/13 16:04:25;;;;;;;12.02;5.20;;;;;;;;;;4385633;32;317340;-91
2023/10/13 16:06:53;;;;;;;13.63;6.07;;;;;;;;;;4374151;32;317748;-91
2023/10/13 16:09:24;;;;;;;16.27;5.68;;;;;;;;;;4385160;32;317758;-91
2023/10/13 16:11:54;;;;;;;11.63;5.47;;;;;;;;;;4376312;32;317507;-91
2023/10/13 16:14:24;;;;;;;11.98;4.32;;;;;;;;;;4361110;32;317584;-91
2023/10/13 16:16:53;;;;;;;13.90;5.53;;;;;;;;;;4374546;32;318319;-89
2023/10/13 16:19:24;;;;;;;11.38;5.62;;;;;;;;;;4383269;32;317860;-91
2023/10/13 16:21:52;;;;;;;10.20;5.28;;;;;;;;;;4373028;32;326333;-90
2023/10/13 16:24:20;;;;;;;12.63;5.18;;;;;;;;;;4387520;32;318353;-90
2023/10/13 16:26:49;;;;;;;16.10;5.75;;;;;;;;;;4387292;32;317295;-90
2023/10/13 16:29:17;;;;;;;18.65;5.30;;;;;;;;;;4377332;32;317341;-90
2023/10/13 16:31:47;;;;;;;7.32;4.40;;;;;;;;;;4377356;32;316373;-90
2023/10/13 16:34:25;;;;;;;10.55;4.72;;;;;;;;;;4402515;32;315285;-89
2023/10/13 16:36:56;;;;;;;13.23;4.93;;;;;;;;;;4380741;32;316337;-90
2023/10/13 16:39:28;;;;;;;11.73;4.43;;;;;;;;;;4361989;32;317626;-91
2023/10/13 16:42:07;;;;;;;13.77;4.72;;;;;;;;;;4367949;32;317322;-88
2023/10/13 16:44:38;;;;;;;8.65;4.72;;;;;;;;;;4380034;32;317855;-88
2023/10/13 16:47:05;;;;;;;8.55;4.78;;;;;;;;;;4360392;32;415803;-88
2023/10/13 16:49:38;;;;;;;8.73;4.10;;;;;;;;;;4385200;32;315359;-88
2023/10/13 16:52:11;;;;;;;13.27;4.35;;;;;;;;;;4372648;32;416166;-88
2023/10/13 16:54:43;;;;;;;9.43;4.80;;;;;;;;;;4379686;32;317692;-89
2023/10/13 16:57:14;;;;;;;14.30;5.90;;;;;;;;;;4374411;32;416603;-91
2023/10/13 16:59:47;;;;;;;17.12;5.90;;;;;;;;;;4383265;32;317468;-89
2023/10/13 17:02:23;;;;;;;17.70;5.62;;;;;;;;;;4385584;32;322625;-88
2023/10/13 17:04:57;;;;;;;13.67;5.10;;;;;;;;;;4365820;32;317812;-89
2023/10/13 17:07:28;;;;;;;15.60;5.78;;;;;;;;;;4368996;32;318223;-89
2023/10/13 17:09:59;;;;;;;12.43;5.55;;;;;;;;;;4373858;32;318458;-88
2023/10/13 17:12:29;;;;;;;16.45;4.25;;;;;;;;;;4380086;32;317667;-88
2023/10/13 17:14:58;;;;;;;12.13;4.85;;;;;;;;;;4356336;32;317687;-90
2023/10/13 17:17:26;;;;;;;10.00;3.83;;;;;;;;;;4382486;32;317689;-91
2023/10/13 17:19:59;;;;;;;19.20;4.40;;;;;;;;;;4371802;32;317594;-90
2023/10/13 17:22:40;;;;;;;11.27;5.05;;;;;;;;;;4361265;32;317580;-89
2023/10/13 17:25:12;;;;;;;7.32;3.70;;;;;;;;;;4368976;32;417307;-90
2023/10/13 17:30:32;;;;;;;9.38;3.60;;;;;;;;;;4326279;32;389560;-90
2023/10/13 17:36:06;;;;;;;7.60;3.15;;;;;;;;;;4379115;32;317516;-87
2023/10/13 17:38:34;;;;;;;5.47;3.03;;;;;;;;;;4382962;32;316725;-90
2023/10/13 17:41:05;;;;;;;12.02;4.32;;;;;;;;;;4352296;32;317322;-90
2023/10/13 17:43:36;;;;;;;7.05;3.42;;;;;;;;;;4343292;32;317692;-89
2023/10/13 17:46:08;;;;;;;12.93;4.18;;;;;;;;;;4358106;32;316841;-91
2023/10/13 17:48:43;;;;;;;15.80;4.28;;;;;;;;;;4369356;32;317818;-90
2023/10/13 17:51:13;;;;;;;8.02;3.90;;;;;;;;;;4336464;32;417396;-90
2023/10/13 17:53:41;;;;;;;9.90;4.12;;;;;;;;;;4347773;32;338706;-90
2023/10/13 17:56:12;;;;;;;12.70;4.10;;;;;;;;;;4361156;32;316462;-91
2023/10/13 17:58:56;;;;;;;11.12;4.53;;;;;;;;;;4347254;32;325225;-90
2023/10/13 18:01:25;;;;;;;13.68;4.50;;;;;;;;;;4355286;32;419946;-90
2023/10/13 18:04:04;;;;;;;12.10;4.00;;;;;;;;;;4355655;32;317714;-90